sensor_id;sensor_type;location;lat;lon;timestamp;P1;durP1;ratioP1;P2;durP2;ratioP2
69369;SDS011;56530;42.640;23.372;2023-07-31T00:01:28;2.60;;;2.40;;
69369;SDS011;56530;42.640;23.372;2023-07-31T00:03:54;2.80;;;2.60;;
69369;SDS011;56530;42.640;23.372;2023-07-31T00:06:19;3.10;;;2.80;;
69369;SDS011;56530;42.640;23.372;2023-07-31T00:08:45;2.70;;;2.50;;
69369;SDS011;56530;42.640;23.372;2023-07-31T00:11:10;3.03;;;2.70;;
69369;SDS011;56530;42.640;23.372;2023-07-31T00:13:35;2.70;;;2.50;;
69369;SDS011;56530;42.640;23.372;2023-07-31T00:16:01;3.00;;;2.70;;
69369;SDS011;56530;42.640;23.372;2023-07-31T00:18:26;3.23;;;2.90;;
69369;SDS011;56530;42.640;23.372;2023-07-31T00:20:52;4.40;;;3.00;;
69369;SDS011;56530;42.640;23.372;2023-07-31T00:23:17;4.23;;;3.07;;
69369;SDS011;56530;42.640;23.372;2023-07-31T00:25:42;2.80;;;2.60;;
69369;SDS011;56530;42.640;23.372;2023-07-31T00:28:08;2.97;;;2.78;;
69369;SDS011;56530;42.640;23.372;2023-07-31T00:30:33;3.17;;;2.77;;
69369;SDS011;56530;42.640;23.372;2023-07-31T00:32:59;4.10;;;2.80;;
69369;SDS011;56530;42.640;23.372;2023-07-31T00:35:24;2.80;;;2.60;;
69369;SDS011;56530;42.640;23.372;2023-07-31T00:37:49;2.97;;;2.77;;
69369;SDS011;56530;42.640;23.372;2023-07-31T00:40:15;3.10;;;2.80;;
69369;SDS011;56530;42.640;23.372;2023-07-31T00:42:40;2.95;;;2.75;;
69369;SDS011;56530;42.640;23.372;2023-07-31T00:45:05;4.15;;;3.17;;
69369;SDS011;56530;42.640;23.372;2023-07-31T00:47:31;3.58;;;3.25;;
69369;SDS011;56530;42.640;23.372;2023-07-31T00:49:57;2.97;;;2.72;;
69369;SDS011;56530;42.640;23.372;2023-07-31T00:52:22;3.97;;;3.65;;
69369;SDS011;56530;42.640;23.372;2023-07-31T00:54:48;3.28;;;2.97;;
69369;SDS011;56530;42.640;23.372;2023-07-31T00:57:14;3.00;;;2.80;;
69369;SDS011;56530;42.640;23.372;2023-07-31T00:59:39;3.80;;;3.30;;
69369;SDS011;56530;42.640;23.372;2023-07-31T01:02:05;3.87;;;3.47;;
69369;SDS011;56530;42.640;23.372;2023-07-31T01:04:30;4.47;;;3.77;;
69369;SDS011;56530;42.640;23.372;2023-07-31T01:07:01;4.30;;;3.90;;
69369;SDS011;56530;42.640;23.372;2023-07-31T01:09:33;5.90;;;4.27;;
69369;SDS011;56530;42.640;23.372;2023-07-31T01:12:08;4.50;;;4.10;;
69369;SDS011;56530;42.640;23.372;2023-07-31T01:14:34;4.50;;;4.10;;
69369;SDS011;56530;42.640;23.372;2023-07-31T01:17:00;4.20;;;3.80;;
69369;SDS011;56530;42.640;23.372;2023-07-31T01:19:26;5.43;;;4.93;;
69369;SDS011;56530;42.640;23.372;2023-07-31T01:27:30;6.05;;;5.55;;
69369;SDS011;56530;42.640;23.372;2023-07-31T01:32:35;7.30;;;6.60;;
69369;SDS011;56530;42.640;23.372;2023-07-31T01:35:01;8.25;;;7.55;;
69369;SDS011;56530;42.640;23.372;2023-07-31T01:37:28;8.30;;;7.50;;
69369;SDS011;56530;42.640;23.372;2023-07-31T01:39:54;8.50;;;7.80;;
69369;SDS011;56530;42.640;23.372;2023-07-31T01:42:20;9.45;;;8.63;;
69369;SDS011;56530;42.640;23.372;2023-07-31T01:44:45;10.67;;;9.77;;
69369;SDS011;56530;42.640;23.372;2023-07-31T01:47:10;10.90;;;9.90;;
69369;SDS011;56530;42.640;23.372;2023-07-31T01:49:36;11.67;;;10.57;;
69369;SDS011;56530;42.640;23.372;2023-07-31T01:52:01;12.37;;;11.27;;
69369;SDS011;56530;42.640;23.372;2023-07-31T01:54:26;12.73;;;11.55;;
69369;SDS011;56530;42.640;23.372;2023-07-31T01:56:52;15.40;;;13.82;;
69369;SDS011;56530;42.640;23.372;2023-07-31T01:59:17;14.10;;;12.90;;
69369;SDS011;56530;42.640;23.372;2023-07-31T02:01:42;16.77;;;15.10;;
69369;SDS011;56530;42.640;23.372;2023-07-31T02:04:08;16.10;;;14.60;;
69369;SDS011;56530;42.640;23.372;2023-07-31T02:06:33;15.77;;;14.37;;
69369;SDS011;56530;42.640;23.372;2023-07-31T02:08:59;16.93;;;15.23;;
69369;SDS011;56530;42.640;23.372;2023-07-31T02:11:24;17.30;;;15.70;;
69369;SDS011;56530;42.640;23.372;2023-07-31T02:13:49;16.60;;;14.93;;
69369;SDS011;56530;42.640;23.372;2023-07-31T02:16:15;15.65;;;14.27;;
69369;SDS011;56530;42.640;23.372;2023-07-31T02:18:40;16.25;;;14.75;;
69369;SDS011;56530;42.640;23.372;2023-07-31T02:21:06;16.67;;;15.07;;
69369;SDS011;56530;42.640;23.372;2023-07-31T02:23:31;16.47;;;14.90;;
69369;SDS011;56530;42.640;23.372;2023-07-31T02:25:56;16.47;;;14.67;;
69369;SDS011;56530;42.640;23.372;2023-07-31T02:28:22;16.17;;;14.67;;
69369;SDS011;56530;42.640;23.372;2023-07-31T02:30:47;17.13;;;15.27;;
69369;SDS011;56530;42.640;23.372;2023-07-31T02:33:13;17.27;;;15.70;;
69369;SDS011;56530;42.640;23.372;2023-07-31T02:35:39;16.48;;;14.93;;
69369;SDS011;56530;42.640;23.372;2023-07-31T02:38:05;16.03;;;14.63;;
69369;SDS011;56530;42.640;23.372;2023-07-31T02:40:30;16.23;;;14.73;;
69369;SDS011;56530;42.640;23.372;2023-07-31T02:42:55;16.88;;;15.18;;
69369;SDS011;56530;42.640;23.372;2023-07-31T02:45:21;16.60;;;14.87;;
69369;SDS011;56530;42.640;23.372;2023-07-31T02:47:46;17.10;;;15.30;;
69369;SDS011;56530;42.640;23.372;2023-07-31T02:50:12;17.77;;;15.97;;
69369;SDS011;56530;42.640;23.372;2023-07-31T02:52:37;17.30;;;15.60;;
69369;SDS011;56530;42.640;23.372;2023-07-31T02:55:02;16.73;;;15.10;;
69369;SDS011;56530;42.640;23.372;2023-07-31T02:57:28;16.23;;;14.63;;
69369;SDS011;56530;42.640;23.372;2023-07-31T02:59:53;17.13;;;15.43;;
69369;SDS011;56530;42.640;23.372;2023-07-31T03:02:19;17.40;;;15.80;;
69369;SDS011;56530;42.640;23.372;2023-07-31T03:04:44;18.80;;;16.80;;
69369;SDS011;56530;42.640;23.372;2023-07-31T03:07:10;17.70;;;16.07;;
69369;SDS011;56530;42.640;23.372;2023-07-31T03:09:35;17.30;;;15.70;;
69369;SDS011;56530;42.640;23.372;2023-07-31T03:12:00;17.50;;;15.73;;
69369;SDS011;56530;42.640;23.372;2023-07-31T03:14:26;17.73;;;16.02;;
69369;SDS011;56530;42.640;23.372;2023-07-31T03:16:51;18.85;;;15.95;;
69369;SDS011;56530;42.640;23.372;2023-07-31T03:19:17;16.65;;;15.15;;
69369;SDS011;56530;42.640;23.372;2023-07-31T03:21:42;17.63;;;16.03;;
69369;SDS011;56530;42.640;23.372;2023-07-31T03:24:08;18.65;;;16.75;;
69369;SDS011;56530;42.640;23.372;2023-07-31T03:26:33;17.48;;;15.88;;
69369;SDS011;56530;42.640;23.372;2023-07-31T03:28:59;17.27;;;15.63;;
69369;SDS011;56530;42.640;23.372;2023-07-31T03:31:24;17.90;;;16.02;;
69369;SDS011;56530;42.640;23.372;2023-07-31T03:33:49;17.80;;;16.20;;
69369;SDS011;56530;42.640;23.372;2023-07-31T03:36:15;18.47;;;16.50;;
69369;SDS011;56530;42.640;23.372;2023-07-31T03:38:40;18.03;;;15.77;;
69369;SDS011;56530;42.640;23.372;2023-07-31T03:41:06;19.07;;;17.23;;
69369;SDS011;56530;42.640;23.372;2023-07-31T03:43:31;21.37;;;17.20;;
69369;SDS011;56530;42.640;23.372;2023-07-31T03:45:59;18.48;;;16.67;;
69369;SDS011;56530;42.640;23.372;2023-07-31T03:48:25;19.45;;;17.52;;
69369;SDS011;56530;42.640;23.372;2023-07-31T03:50:50;18.20;;;16.48;;
69369;SDS011;56530;42.640;23.372;2023-07-31T03:53:15;19.90;;;17.83;;
69369;SDS011;56530;42.640;23.372;2023-07-31T03:55:41;22.03;;;19.83;;
69369;SDS011;56530;42.640;23.372;2023-07-31T03:58:06;20.60;;;18.50;;
69369;SDS011;56530;42.640;23.372;2023-07-31T04:00:31;18.77;;;16.97;;
69369;SDS011;56530;42.640;23.372;2023-07-31T04:02:57;19.47;;;17.57;;
69369;SDS011;56530;42.640;23.372;2023-07-31T04:05:22;19.40;;;17.30;;
69369;SDS011;56530;42.640;23.372;2023-07-31T04:07:48;19.08;;;17.27;;
69369;SDS011;56530;42.640;23.372;2023-07-31T04:10:13;20.60;;;18.55;;
69369;SDS011;56530;42.640;23.372;2023-07-31T04:12:39;20.47;;;18.57;;
69369;SDS011;56530;42.640;23.372;2023-07-31T04:15:04;22.77;;;20.50;;
69369;SDS011;56530;42.640;23.372;2023-07-31T04:17:30;21.80;;;19.63;;
69369;SDS011;56530;42.640;23.372;2023-07-31T04:19:55;20.83;;;18.63;;
69369;SDS011;56530;42.640;23.372;2023-07-31T04:22:20;20.70;;;18.63;;
69369;SDS011;56530;42.640;23.372;2023-07-31T04:24:46;19.97;;;17.90;;
69369;SDS011;56530;42.640;23.372;2023-07-31T04:27:11;20.47;;;18.50;;
69369;SDS011;56530;42.640;23.372;2023-07-31T04:29:37;20.93;;;18.93;;
69369;SDS011;56530;42.640;23.372;2023-07-31T04:32:04;20.65;;;18.65;;
69369;SDS011;56530;42.640;23.372;2023-07-31T04:34:30;22.37;;;20.03;;
69369;SDS011;56530;42.640;23.372;2023-07-31T04:36:58;20.80;;;18.60;;
69369;SDS011;56530;42.640;23.372;2023-07-31T04:39:23;20.17;;;17.85;;
69369;SDS011;56530;42.640;23.372;2023-07-31T04:41:49;21.50;;;19.20;;
69369;SDS011;56530;42.640;23.372;2023-07-31T04:44:14;20.70;;;18.60;;
69369;SDS011;56530;42.640;23.372;2023-07-31T04:46:39;20.93;;;18.73;;
69369;SDS011;56530;42.640;23.372;2023-07-31T04:49:05;20.13;;;18.10;;
69369;SDS011;56530;42.640;23.372;2023-07-31T04:51:30;20.13;;;18.13;;
69369;SDS011;56530;42.640;23.372;2023-07-31T04:53:56;20.30;;;18.27;;
69369;SDS011;56530;42.640;23.372;2023-07-31T04:56:21;18.58;;;16.77;;
69369;SDS011;56530;42.640;23.372;2023-07-31T04:58:47;18.93;;;17.00;;
69369;SDS011;56530;42.640;23.372;2023-07-31T05:01:12;17.67;;;15.98;;
69369;SDS011;56530;42.640;23.372;2023-07-31T05:03:37;18.83;;;16.95;;
69369;SDS011;56530;42.640;23.372;2023-07-31T05:06:03;17.57;;;15.77;;
69369;SDS011;56530;42.640;23.372;2023-07-31T05:08:28;18.17;;;16.33;;
69369;SDS011;56530;42.640;23.372;2023-07-31T05:10:54;17.77;;;15.97;;
69369;SDS011;56530;42.640;23.372;2023-07-31T05:13:19;17.23;;;15.50;;
69369;SDS011;56530;42.640;23.372;2023-07-31T05:15:45;17.33;;;15.57;;
69369;SDS011;56530;42.640;23.372;2023-07-31T05:18:10;17.17;;;15.47;;
69369;SDS011;56530;42.640;23.372;2023-07-31T05:20:35;16.60;;;15.00;;
69369;SDS011;56530;42.640;23.372;2023-07-31T05:23:01;15.98;;;14.45;;
69369;SDS011;56530;42.640;23.372;2023-07-31T05:25:26;17.53;;;13.97;;
69369;SDS011;56530;42.640;23.372;2023-07-31T05:27:52;15.67;;;14.17;;
69369;SDS011;56530;42.640;23.372;2023-07-31T05:30:17;15.80;;;13.90;;
69369;SDS011;56530;42.640;23.372;2023-07-31T05:32:43;15.20;;;13.77;;
69369;SDS011;56530;42.640;23.372;2023-07-31T05:35:09;17.10;;;13.70;;
69369;SDS011;56530;42.640;23.372;2023-07-31T05:37:34;18.08;;;13.90;;
69369;SDS011;56530;42.640;23.372;2023-07-31T05:40:00;15.07;;;13.63;;
69369;SDS011;56530;42.640;23.372;2023-07-31T05:42:25;14.17;;;12.87;;
69369;SDS011;56530;42.640;23.372;2023-07-31T05:44:50;12.43;;;11.23;;
69369;SDS011;56530;42.640;23.372;2023-07-31T05:47:16;12.77;;;10.93;;
69369;SDS011;56530;42.640;23.372;2023-07-31T05:49:41;11.00;;;10.07;;
69369;SDS011;56530;42.640;23.372;2023-07-31T05:52:07;13.25;;;10.43;;
69369;SDS011;56530;42.640;23.372;2023-07-31T05:54:32;10.07;;;9.23;;
69369;SDS011;56530;42.640;23.372;2023-07-31T05:56:58;10.38;;;9.35;;
69369;SDS011;56530;42.640;23.372;2023-07-31T05:59:23;11.95;;;9.35;;
69369;SDS011;56530;42.640;23.372;2023-07-31T06:01:49;10.50;;;8.10;;
69369;SDS011;56530;42.640;23.372;2023-07-31T06:04:14;7.63;;;6.93;;
69369;SDS011;56530;42.640;23.372;2023-07-31T06:06:40;7.73;;;7.03;;
69369;SDS011;56530;42.640;23.372;2023-07-31T06:09:05;9.97;;;7.27;;
69369;SDS011;56530;42.640;23.372;2023-07-31T06:11:31;8.60;;;7.13;;
69369;SDS011;56530;42.640;23.372;2023-07-31T06:13:56;7.67;;;6.97;;
69369;SDS011;56530;42.640;23.372;2023-07-31T06:16:22;7.10;;;6.40;;
69369;SDS011;56530;42.640;23.372;2023-07-31T06:18:48;5.82;;;5.32;;
69369;SDS011;56530;42.640;23.372;2023-07-31T06:21:13;6.38;;;5.78;;
69369;SDS011;56530;42.640;23.372;2023-07-31T06:23:38;5.78;;;5.20;;
69369;SDS011;56530;42.640;23.372;2023-07-31T06:26:04;5.20;;;4.80;;
69369;SDS011;56530;42.640;23.372;2023-07-31T06:28:30;6.38;;;5.18;;
69369;SDS011;56530;42.640;23.372;2023-07-31T06:30:56;5.63;;;5.00;;
69369;SDS011;56530;42.640;23.372;2023-07-31T06:33:22;6.43;;;5.03;;
69369;SDS011;56530;42.640;23.372;2023-07-31T06:35:48;5.73;;;5.00;;
69369;SDS011;56530;42.640;23.372;2023-07-31T06:38:13;4.95;;;3.97;;
69369;SDS011;56530;42.640;23.372;2023-07-31T06:40:38;6.03;;;4.37;;
69369;SDS011;56530;42.640;23.372;2023-07-31T06:43:04;4.60;;;4.20;;
69369;SDS011;56530;42.640;23.372;2023-07-31T06:45:34;4.28;;;3.90;;
69369;SDS011;56530;42.640;23.372;2023-07-31T06:48:00;5.43;;;4.85;;
69369;SDS011;56530;42.640;23.372;2023-07-31T06:50:27;4.20;;;3.67;;
69369;SDS011;56530;42.640;23.372;2023-07-31T06:52:55;14.05;;;4.40;;
69369;SDS011;56530;42.640;23.372;2023-07-31T06:55:21;8.77;;;4.38;;
69369;SDS011;56530;42.640;23.372;2023-07-31T06:57:47;11.90;;;4.90;;
69369;SDS011;56530;42.640;23.372;2023-07-31T07:00:13;4.57;;;4.03;;
69369;SDS011;56530;42.640;23.372;2023-07-31T07:02:39;6.15;;;4.65;;
69369;SDS011;56530;42.640;23.372;2023-07-31T07:05:05;4.13;;;3.83;;
69369;SDS011;56530;42.640;23.372;2023-07-31T07:07:31;5.75;;;3.78;;
69369;SDS011;56530;42.640;23.372;2023-07-31T07:09:57;5.18;;;4.10;;
69369;SDS011;56530;42.640;23.372;2023-07-31T07:12:24;5.07;;;3.65;;
69369;SDS011;56530;42.640;23.372;2023-07-31T07:14:50;4.03;;;3.70;;
69369;SDS011;56530;42.640;23.372;2023-07-31T07:17:17;4.75;;;3.30;;
69369;SDS011;56530;42.640;23.372;2023-07-31T07:19:43;4.20;;;3.77;;
69369;SDS011;56530;42.640;23.372;2023-07-31T07:22:09;3.60;;;3.30;;
69369;SDS011;56530;42.640;23.372;2023-07-31T07:24:35;4.18;;;3.88;;
69369;SDS011;56530;42.640;23.372;2023-07-31T07:27:00;5.20;;;3.70;;
69369;SDS011;56530;42.640;23.372;2023-07-31T07:29:26;5.72;;;3.55;;
69369;SDS011;56530;42.640;23.372;2023-07-31T07:31:51;3.80;;;3.50;;
69369;SDS011;56530;42.640;23.372;2023-07-31T07:34:17;6.13;;;3.40;;
69369;SDS011;56530;42.640;23.372;2023-07-31T07:36:42;3.57;;;3.27;;
69369;SDS011;56530;42.640;23.372;2023-07-31T07:39:08;4.23;;;3.60;;
69369;SDS011;56530;42.640;23.372;2023-07-31T07:41:35;5.43;;;3.60;;
69369;SDS011;56530;42.640;23.372;2023-07-31T07:44:01;8.70;;;5.25;;
69369;SDS011;56530;42.640;23.372;2023-07-31T07:46:27;9.50;;;4.50;;
69369;SDS011;56530;42.640;23.372;2023-07-31T07:48:52;7.43;;;4.13;;
69369;SDS011;56530;42.640;23.372;2023-07-31T07:51:17;5.50;;;3.80;;
69369;SDS011;56530;42.640;23.372;2023-07-31T07:53:43;4.90;;;4.13;;
69369;SDS011;56530;42.640;23.372;2023-07-31T07:56:10;10.63;;;4.10;;
69369;SDS011;56530;42.640;23.372;2023-07-31T07:58:35;4.25;;;3.70;;
69369;SDS011;56530;42.640;23.372;2023-07-31T08:01:00;3.60;;;3.30;;
69369;SDS011;56530;42.640;23.372;2023-07-31T08:03:26;5.23;;;3.40;;
69369;SDS011;56530;42.640;23.372;2023-07-31T08:05:51;9.40;;;3.08;;
69369;SDS011;56530;42.640;23.372;2023-07-31T08:08:16;4.20;;;3.10;;
69369;SDS011;56530;42.640;23.372;2023-07-31T08:10:42;4.77;;;3.10;;
69369;SDS011;56530;42.640;23.372;2023-07-31T08:13:09;5.80;;;3.17;;
69369;SDS011;56530;42.640;23.372;2023-07-31T08:15:35;3.47;;;2.97;;
69369;SDS011;56530;42.640;23.372;2023-07-31T08:18:00;2.97;;;2.77;;
69369;SDS011;56530;42.640;23.372;2023-07-31T08:20:26;3.63;;;2.67;;
69369;SDS011;56530;42.640;23.372;2023-07-31T08:22:51;6.57;;;3.30;;
69369;SDS011;56530;42.640;23.372;2023-07-31T08:25:18;4.18;;;2.40;;
69369;SDS011;56530;42.640;23.372;2023-07-31T08:27:43;5.93;;;3.00;;
69369;SDS011;56530;42.640;23.372;2023-07-31T08:30:09;3.42;;;2.63;;
69369;SDS011;56530;42.640;23.372;2023-07-31T08:32:36;5.75;;;2.75;;
69369;SDS011;56530;42.640;23.372;2023-07-31T08:35:01;5.53;;;3.07;;
69369;SDS011;56530;42.640;23.372;2023-07-31T08:37:27;3.03;;;2.83;;
69369;SDS011;56530;42.640;23.372;2023-07-31T08:39:53;3.95;;;2.92;;
69369;SDS011;56530;42.640;23.372;2023-07-31T08:42:19;4.68;;;3.17;;
69369;SDS011;56530;42.640;23.372;2023-07-31T08:44:45;4.05;;;2.78;;
69369;SDS011;56530;42.640;23.372;2023-07-31T08:47:11;3.72;;;2.75;;
69369;SDS011;56530;42.640;23.372;2023-07-31T08:49:37;4.90;;;2.87;;
69369;SDS011;56530;42.640;23.372;2023-07-31T08:52:03;4.50;;;3.10;;
69369;SDS011;56530;42.640;23.372;2023-07-31T08:54:29;4.20;;;3.20;;
69369;SDS011;56530;42.640;23.372;2023-07-31T08:56:56;5.07;;;3.88;;
69369;SDS011;56530;42.640;23.372;2023-07-31T08:59:22;4.70;;;2.88;;
69369;SDS011;56530;42.640;23.372;2023-07-31T09:01:49;4.43;;;3.10;;
69369;SDS011;56530;42.640;23.372;2023-07-31T09:04:16;7.30;;;3.33;;
69369;SDS011;56530;42.640;23.372;2023-07-31T09:06:42;2.80;;;2.60;;
69369;SDS011;56530;42.640;23.372;2023-07-31T09:09:07;5.97;;;2.85;;
69369;SDS011;56530;42.640;23.372;2023-07-31T09:11:34;3.22;;;2.88;;
69369;SDS011;56530;42.640;23.372;2023-07-31T09:13:59;3.00;;;2.70;;
69369;SDS011;56530;42.640;23.372;2023-07-31T09:16:30;2.63;;;2.30;;
69369;SDS011;56530;42.640;23.372;2023-07-31T09:18:58;4.75;;;2.38;;
69369;SDS011;56530;42.640;23.372;2023-07-31T09:21:26;3.90;;;2.83;;
69369;SDS011;56530;42.640;23.372;2023-07-31T09:23:53;3.63;;;2.80;;
69369;SDS011;56530;42.640;23.372;2023-07-31T09:28:57;2.67;;;2.47;;
69369;SDS011;56530;42.640;23.372;2023-07-31T09:31:33;5.43;;;3.20;;
69369;SDS011;56530;42.640;23.372;2023-07-31T09:33:59;3.40;;;2.30;;
69369;SDS011;56530;42.640;23.372;2023-07-31T09:36:28;3.50;;;2.70;;
69369;SDS011;56530;42.640;23.372;2023-07-31T09:38:54;3.03;;;2.78;;
69369;SDS011;56530;42.640;23.372;2023-07-31T09:41:19;3.43;;;2.80;;
69369;SDS011;56530;42.640;23.372;2023-07-31T09:43:52;4.57;;;2.95;;
69369;SDS011;56530;42.640;23.372;2023-07-31T09:46:18;4.13;;;2.90;;
69369;SDS011;56530;42.640;23.372;2023-07-31T09:48:45;3.55;;;3.03;;
69369;SDS011;56530;42.640;23.372;2023-07-31T09:51:11;3.30;;;3.00;;
69369;SDS011;56530;42.640;23.372;2023-07-31T09:53:36;4.37;;;2.90;;
69369;SDS011;56530;42.640;23.372;2023-07-31T09:56:01;4.78;;;3.10;;
69369;SDS011;56530;42.640;23.372;2023-07-31T09:58:28;3.47;;;3.03;;
69369;SDS011;56530;42.640;23.372;2023-07-31T10:00:54;2.97;;;2.67;;
69369;SDS011;56530;42.640;23.372;2023-07-31T10:03:19;4.43;;;3.00;;
69369;SDS011;56530;42.640;23.372;2023-07-31T10:05:46;4.37;;;3.40;;
69369;SDS011;56530;42.640;23.372;2023-07-31T10:08:15;3.80;;;2.92;;
69369;SDS011;56530;42.640;23.372;2023-07-31T10:10:42;6.57;;;3.20;;
69369;SDS011;56530;42.640;23.372;2023-07-31T10:13:08;3.40;;;3.10;;
69369;SDS011;56530;42.640;23.372;2023-07-31T10:15:34;3.30;;;3.00;;
69369;SDS011;56530;42.640;23.372;2023-07-31T10:18:01;3.47;;;2.60;;
69369;SDS011;56530;42.640;23.372;2023-07-31T10:20:26;6.33;;;3.00;;
69369;SDS011;56530;42.640;23.372;2023-07-31T10:22:54;2.92;;;2.72;;
69369;SDS011;56530;42.640;23.372;2023-07-31T10:25:20;3.60;;;2.70;;
69369;SDS011;56530;42.640;23.372;2023-07-31T10:27:47;2.90;;;2.60;;
69369;SDS011;56530;42.640;23.372;2023-07-31T10:30:15;7.00;;;2.83;;
69369;SDS011;56530;42.640;23.372;2023-07-31T10:32:41;4.85;;;2.40;;
69369;SDS011;56530;42.640;23.372;2023-07-31T10:35:07;4.00;;;2.53;;
69369;SDS011;56530;42.640;23.372;2023-07-31T10:37:37;4.95;;;2.95;;
69369;SDS011;56530;42.640;23.372;2023-07-31T10:40:11;3.20;;;2.33;;
69369;SDS011;56530;42.640;23.372;2023-07-31T10:42:56;5.88;;;3.13;;
69369;SDS011;56530;42.640;23.372;2023-07-31T10:48:02;4.30;;;2.93;;
69369;SDS011;56530;42.640;23.372;2023-07-31T10:50:30;4.13;;;2.50;;
69369;SDS011;56530;42.640;23.372;2023-07-31T10:52:59;3.92;;;3.00;;
69369;SDS011;56530;42.640;23.372;2023-07-31T10:55:59;4.77;;;3.00;;
69369;SDS011;56530;42.640;23.372;2023-07-31T10:58:18;3.65;;;3.03;;
69369;SDS011;56530;42.640;23.372;2023-07-31T11:00:45;4.30;;;2.78;;
69369;SDS011;56530;42.640;23.372;2023-07-31T11:10:46;2.90;;;2.53;;
69369;SDS011;56530;42.640;23.372;2023-07-31T11:13:13;7.00;;;3.70;;
69369;SDS011;56530;42.640;23.372;2023-07-31T11:15:39;3.50;;;3.20;;
69369;SDS011;56530;42.640;23.372;2023-07-31T11:18:05;3.67;;;3.07;;
69369;SDS011;56530;42.640;23.372;2023-07-31T11:20:34;6.03;;;3.77;;
69369;SDS011;56530;42.640;23.372;2023-07-31T11:23:01;2.60;;;2.40;;
69369;SDS011;56530;42.640;23.372;2023-07-31T11:25:31;4.10;;;2.92;;
69369;SDS011;56530;42.640;23.372;2023-07-31T11:27:57;4.20;;;2.47;;
69369;SDS011;56530;42.640;23.372;2023-07-31T11:30:29;3.83;;;2.97;;
69369;SDS011;56530;42.640;23.372;2023-07-31T11:32:55;2.63;;;2.40;;
69369;SDS011;56530;42.640;23.372;2023-07-31T11:35:20;3.33;;;2.73;;
69369;SDS011;56530;42.640;23.372;2023-07-31T11:37:47;2.47;;;2.28;;
69369;SDS011;56530;42.640;23.372;2023-07-31T11:40:13;3.43;;;2.60;;
69369;SDS011;56530;42.640;23.372;2023-07-31T11:42:39;4.22;;;2.58;;
69369;SDS011;56530;42.640;23.372;2023-07-31T11:45:05;4.10;;;2.27;;
69369;SDS011;56530;42.640;23.372;2023-07-31T11:47:34;2.75;;;2.50;;
69369;SDS011;56530;42.640;23.372;2023-07-31T11:50:01;4.63;;;2.13;;
69369;SDS011;56530;42.640;23.372;2023-07-31T11:52:33;6.05;;;2.20;;
69369;SDS011;56530;42.640;23.372;2023-07-31T11:55:01;2.88;;;2.60;;
69369;SDS011;56530;42.640;23.372;2023-07-31T11:57:27;2.77;;;2.57;;
69369;SDS011;56530;42.640;23.372;2023-07-31T11:59:53;7.40;;;3.70;;
69369;SDS011;56530;42.640;23.372;2023-07-31T12:02:19;7.45;;;2.70;;
69369;SDS011;56530;42.640;23.372;2023-07-31T12:04:45;8.45;;;3.10;;
69369;SDS011;56530;42.640;23.372;2023-07-31T12:07:11;6.13;;;2.90;;
69369;SDS011;56530;42.640;23.372;2023-07-31T12:09:37;2.80;;;2.60;;
69369;SDS011;56530;42.640;23.372;2023-07-31T12:12:03;5.30;;;2.77;;
69369;SDS011;56530;42.640;23.372;2023-07-31T12:14:33;3.23;;;2.93;;
69369;SDS011;56530;42.640;23.372;2023-07-31T12:17:01;4.27;;;2.37;;
69369;SDS011;56530;42.640;23.372;2023-07-31T12:19:29;3.77;;;2.77;;
69369;SDS011;56530;42.640;23.372;2023-07-31T12:21:55;4.13;;;3.05;;
69369;SDS011;56530;42.640;23.372;2023-07-31T12:24:21;2.97;;;2.70;;
69369;SDS011;56530;42.640;23.372;2023-07-31T12:26:47;4.00;;;3.20;;
69369;SDS011;56530;42.640;23.372;2023-07-31T12:29:13;3.53;;;3.13;;
69369;SDS011;56530;42.640;23.372;2023-07-31T12:31:40;4.30;;;2.88;;
69369;SDS011;56530;42.640;23.372;2023-07-31T12:34:16;6.30;;;3.38;;
69369;SDS011;56530;42.640;23.372;2023-07-31T12:36:48;4.78;;;4.43;;
69369;SDS011;56530;42.640;23.372;2023-07-31T12:39:14;5.10;;;4.60;;
69369;SDS011;56530;42.640;23.372;2023-07-31T12:41:40;5.23;;;4.73;;
69369;SDS011;56530;42.640;23.372;2023-07-31T12:44:05;5.23;;;4.80;;
69369;SDS011;56530;42.640;23.372;2023-07-31T12:46:31;7.27;;;5.33;;
69369;SDS011;56530;42.640;23.372;2023-07-31T12:48:56;5.07;;;4.67;;
69369;SDS011;56530;42.640;23.372;2023-07-31T12:51:21;5.10;;;4.60;;
69369;SDS011;56530;42.640;23.372;2023-07-31T12:53:47;11.70;;;4.53;;
69369;SDS011;56530;42.640;23.372;2023-07-31T12:56:12;4.55;;;4.15;;
69369;SDS011;56530;42.640;23.372;2023-07-31T12:58:37;5.60;;;4.20;;
69369;SDS011;56530;42.640;23.372;2023-07-31T13:01:03;4.83;;;4.33;;
69369;SDS011;56530;42.640;23.372;2023-07-31T13:03:28;8.20;;;4.07;;
69369;SDS011;56530;42.640;23.372;2023-07-31T13:05:54;6.72;;;4.50;;
69369;SDS011;56530;42.640;23.372;2023-07-31T13:08:20;4.40;;;4.05;;
69369;SDS011;56530;42.640;23.372;2023-07-31T13:10:45;5.33;;;4.70;;
69369;SDS011;56530;42.640;23.372;2023-07-31T13:13:10;5.00;;;4.60;;
69369;SDS011;56530;42.640;23.372;2023-07-31T13:15:36;5.50;;;5.00;;
69369;SDS011;56530;42.640;23.372;2023-07-31T13:18:01;5.30;;;4.80;;
69369;SDS011;56530;42.640;23.372;2023-07-31T13:20:27;7.88;;;5.10;;
69369;SDS011;56530;42.640;23.372;2023-07-31T13:22:52;6.43;;;5.10;;
69369;SDS011;56530;42.640;23.372;2023-07-31T13:25:17;5.80;;;5.20;;
69369;SDS011;56530;42.640;23.372;2023-07-31T13:27:43;10.23;;;5.67;;
69369;SDS011;56530;42.640;23.372;2023-07-31T13:30:08;5.28;;;4.78;;
69369;SDS011;56530;42.640;23.372;2023-07-31T13:32:34;5.17;;;4.67;;
69369;SDS011;56530;42.640;23.372;2023-07-31T13:35:03;8.13;;;4.50;;
69369;SDS011;56530;42.640;23.372;2023-07-31T13:37:33;5.28;;;4.65;;
69369;SDS011;56530;42.640;23.372;2023-07-31T13:39:58;5.07;;;4.65;;
69369;SDS011;56530;42.640;23.372;2023-07-31T13:42:24;4.50;;;4.10;;
69369;SDS011;56530;42.640;23.372;2023-07-31T13:44:49;5.10;;;4.00;;
69369;SDS011;56530;42.640;23.372;2023-07-31T13:47:14;4.10;;;3.40;;
69369;SDS011;56530;42.640;23.372;2023-07-31T13:49:40;7.03;;;4.80;;
69369;SDS011;56530;42.640;23.372;2023-07-31T13:52:06;6.53;;;4.15;;
69369;SDS011;56530;42.640;23.372;2023-07-31T13:54:32;6.15;;;3.90;;
69369;SDS011;56530;42.640;23.372;2023-07-31T13:56:57;4.47;;;3.93;;
69369;SDS011;56530;42.640;23.372;2023-07-31T13:59:23;4.57;;;4.10;;
69369;SDS011;56530;42.640;23.372;2023-07-31T14:01:48;4.63;;;4.07;;
69369;SDS011;56530;42.640;23.372;2023-07-31T14:04:15;4.55;;;4.05;;
69369;SDS011;56530;42.640;23.372;2023-07-31T14:06:40;4.30;;;3.90;;
69369;SDS011;56530;42.640;23.372;2023-07-31T14:09:06;8.10;;;3.90;;
69369;SDS011;56530;42.640;23.372;2023-07-31T14:11:31;5.47;;;3.90;;
69369;SDS011;56530;42.640;23.372;2023-07-31T14:13:57;6.90;;;4.53;;
69369;SDS011;56530;42.640;23.372;2023-07-31T14:16:22;6.23;;;4.10;;
69369;SDS011;56530;42.640;23.372;2023-07-31T14:18:48;4.57;;;4.10;;
69369;SDS011;56530;42.640;23.372;2023-07-31T14:21:13;6.30;;;4.00;;
69369;SDS011;56530;42.640;23.372;2023-07-31T14:23:39;4.43;;;4.00;;
69369;SDS011;56530;42.640;23.372;2023-07-31T14:26:05;5.65;;;3.92;;
69369;SDS011;56530;42.640;23.372;2023-07-31T14:28:30;5.20;;;4.10;;
69369;SDS011;56530;42.640;23.372;2023-07-31T14:30:56;4.57;;;4.10;;
69369;SDS011;56530;42.640;23.372;2023-07-31T14:33:21;7.05;;;4.72;;
69369;SDS011;56530;42.640;23.372;2023-07-31T14:35:46;4.53;;;4.13;;
69369;SDS011;56530;42.640;23.372;2023-07-31T14:38:12;4.60;;;4.03;;
69369;SDS011;56530;42.640;23.372;2023-07-31T14:40:37;4.03;;;3.73;;